Agua Dulce, California
Current Conditions -  °F | °C
As of 9:56 PM on Thursday 27 Nov 2014 (Local Time) from KWJF Reporting Station
Clear Clear  
Wind Chill:   Ceiling: Unl
Heat Index:   Visibility: 10mi
Dew Point: -9°   Wind: 3mph
Humidity: 35%   Direction: 270°W
Pressure: 30.15"   Gusts: NA
Location:  34.513°N, 118.402°W
Report Text: KWJF 280556Z 27003KT 10SM CLR 05/M09 A3015 RMK AO2 SLP216 T00501094 10206 20050 58000
Loading
Personal Weather Stations






























Interactive Weather Map New forecast layout! Learn more

10-Day Weather Forecast

Advertisements
Track Severe Weather on mobile